sensor_id;sensor_type;location;lat;lon;timestamp;temperature;humidity
41437;DHT22;27178;49.460;10.850;2023-12-04T00:00:32;-0.80;77.70
41437;DHT22;27178;49.460;10.850;2023-12-04T00:03:01;-0.80;77.70
41437;DHT22;27178;49.460;10.850;2023-12-04T00:05:30;-0.80;78.40
41437;DHT22;27178;49.460;10.850;2023-12-04T00:07:58;-2.50;76.50
41437;DHT22;27178;49.460;10.850;2023-12-04T00:10:27;-0.80;77.60
41437;DHT22;27178;49.460;10.850;2023-12-04T00:12:56;-0.80;77.60
41437;DHT22;27178;49.460;10.850;2023-12-04T00:15:24;-0.90;77.40
41437;DHT22;27178;49.460;10.850;2023-12-04T00:17:53;-0.80;77.50
41437;DHT22;27178;49.460;10.850;2023-12-04T00:20:23;-0.90;77.20
41437;DHT22;27178;49.460;10.850;2023-12-04T00:22:51;-0.80;77.40
41437;DHT22;27178;49.460;10.850;2023-12-04T00:25:20;-0.80;77.50
41437;DHT22;27178;49.460;10.850;2023-12-04T00:27:48;-0.90;77.50
41437;DHT22;27178;49.460;10.850;2023-12-04T00:30:16;-0.80;77.80
41437;DHT22;27178;49.460;10.850;2023-12-04T00:32:45;-0.80;77.90
41437;DHT22;27178;49.460;10.850;2023-12-04T00:35:13;-0.80;77.70
41437;DHT22;27178;49.460;10.850;2023-12-04T00:37:43;-0.90;77.80
41437;DHT22;27178;49.460;10.850;2023-12-04T00:40:12;-0.80;77.80
41437;DHT22;27178;49.460;10.850;2023-12-04T00:42:40;-0.80;77.90
41437;DHT22;27178;49.460;10.850;2023-12-04T00:45:09;-0.80;78.00
41437;DHT22;27178;49.460;10.850;2023-12-04T00:47:38;-0.80;78.10
41437;DHT22;27178;49.460;10.850;2023-12-04T00:50:06;-0.80;77.90
41437;DHT22;27178;49.460;10.850;2023-12-04T00:52:34;-0.80;77.90
41437;DHT22;27178;49.460;10.850;2023-12-04T00:55:05;-0.80;77.90
41437;DHT22;27178;49.460;10.850;2023-12-04T00:57:34;-0.80;77.90
41437;DHT22;27178;49.460;10.850;2023-12-04T01:00:03;-0.80;77.60
41437;DHT22;27178;49.460;10.850;2023-12-04T01:02:32;-0.80;77.70
41437;DHT22;27178;49.460;10.850;2023-12-04T01:05:00;-0.80;77.60
41437;DHT22;27178;49.460;10.850;2023-12-04T01:07:29;0.70;78.60
41437;DHT22;27178;49.460;10.850;2023-12-04T01:09:57;-0.80;77.90
41437;DHT22;27178;49.460;10.850;2023-12-04T01:12:27;-0.80;77.90
41437;DHT22;27178;49.460;10.850;2023-12-04T01:14:56;-0.80;77.90
41437;DHT22;27178;49.460;10.850;2023-12-04T01:17:24;-0.70;77.90
41437;DHT22;27178;49.460;10.850;2023-12-04T01:19:53;-0.80;77.90
41437;DHT22;27178;49.460;10.850;2023-12-04T01:22:21;-0.70;78.00
41437;DHT22;27178;49.460;10.850;2023-12-04T01:24:49;-0.80;78.10
41437;DHT22;27178;49.460;10.850;2023-12-04T01:27:18;-0.70;78.50
41437;DHT22;27178;49.460;10.850;2023-12-04T01:29:48;-0.70;78.60
41437;DHT22;27178;49.460;10.850;2023-12-04T01:32:16;-0.70;78.50
41437;DHT22;27178;49.460;10.850;2023-12-04T01:34:45;-0.70;78.30
41437;DHT22;27178;49.460;10.850;2023-12-04T01:37:14;-0.70;78.30
41437;DHT22;27178;49.460;10.850;2023-12-04T01:39:42;-0.70;78.10
41437;DHT22;27178;49.460;10.850;2023-12-04T01:42:10;-0.70;77.90
41437;DHT22;27178;49.460;10.850;2023-12-04T01:44:38;-0.60;77.90
41437;DHT22;27178;49.460;10.850;2023-12-04T01:47:09;-0.60;78.10
41437;DHT22;27178;49.460;10.850;2023-12-04T01:49:38;-0.60;78.30
41437;DHT22;27178;49.460;10.850;2023-12-04T01:52:06;-0.60;78.30
41437;DHT22;27178;49.460;10.850;2023-12-04T01:54:35;-0.60;78.30
41437;DHT22;27178;49.460;10.850;2023-12-04T01:57:05;-0.50;78.10
41437;DHT22;27178;49.460;10.850;2023-12-04T01:59:34;-1.20;77.50
41437;DHT22;27178;49.460;10.850;2023-12-04T02:02:03;-0.50;78.00
41437;DHT22;27178;49.460;10.850;2023-12-04T02:04:33;-0.60;77.90
41437;DHT22;27178;49.460;10.850;2023-12-04T02:07:02;-0.60;77.70
41437;DHT22;27178;49.460;10.850;2023-12-04T02:09:31;-0.60;77.60
41437;DHT22;27178;49.460;10.850;2023-12-04T02:11:59;-0.60;77.70
41437;DHT22;27178;49.460;10.850;2023-12-04T02:14:27;-0.60;77.90
41437;DHT22;27178;49.460;10.850;2023-12-04T02:16:57;-0.60;77.70
41437;DHT22;27178;49.460;10.850;2023-12-04T02:19:26;-0.60;77.80
41437;DHT22;27178;49.460;10.850;2023-12-04T02:21:56;-0.60;77.60
41437;DHT22;27178;49.460;10.850;2023-12-04T02:24:26;-0.60;77.60
41437;DHT22;27178;49.460;10.850;2023-12-04T02:26:56;-0.60;77.50
41437;DHT22;27178;49.460;10.850;2023-12-04T02:29:30;-0.60;77.50
41437;DHT22;27178;49.460;10.850;2023-12-04T02:32:01;-0.60;77.50
41437;DHT22;27178;49.460;10.850;2023-12-04T02:34:32;-0.70;77.40
41437;DHT22;27178;49.460;10.850;2023-12-04T02:37:01;-0.70;77.30
41437;DHT22;27178;49.460;10.850;2023-12-04T02:39:32;-0.70;77.40
41437;DHT22;27178;49.460;10.850;2023-12-04T02:42:00;-0.70;77.30
41437;DHT22;27178;49.460;10.850;2023-12-04T02:44:29;-0.70;77.60
41437;DHT22;27178;49.460;10.850;2023-12-04T02:46:57;-0.80;77.50
41437;DHT22;27178;49.460;10.850;2023-12-04T02:49:26;-0.80;77.50
41437;DHT22;27178;49.460;10.850;2023-12-04T02:51:54;-0.80;77.30
41437;DHT22;27178;49.460;10.850;2023-12-04T02:54:24;-0.80;77.20
41437;DHT22;27178;49.460;10.850;2023-12-04T02:56:54;-0.80;77.20
41437;DHT22;27178;49.460;10.850;2023-12-04T02:59:22;-0.90;77.10
41437;DHT22;27178;49.460;10.850;2023-12-04T03:01:51;-0.90;77.10
41437;DHT22;27178;49.460;10.850;2023-12-04T03:04:19;-0.90;77.20
41437;DHT22;27178;49.460;10.850;2023-12-04T03:06:48;-0.90;77.30
41437;DHT22;27178;49.460;10.850;2023-12-04T03:09:16;-1.00;77.30
41437;DHT22;27178;49.460;10.850;2023-12-04T03:11:44;-0.90;77.70
41437;DHT22;27178;49.460;10.850;2023-12-04T03:14:14;-0.90;77.70
41437;DHT22;27178;49.460;10.850;2023-12-04T03:16:42;-0.90;77.70
41437;DHT22;27178;49.460;10.850;2023-12-04T03:19:11;-0.90;77.50
41437;DHT22;27178;49.460;10.850;2023-12-04T03:21:39;-0.90;77.40
41437;DHT22;27178;49.460;10.850;2023-12-04T03:24:07;-1.00;77.50
41437;DHT22;27178;49.460;10.850;2023-12-04T03:26:36;-0.90;77.70
41437;DHT22;27178;49.460;10.850;2023-12-04T03:29:04;-0.90;77.50
41437;DHT22;27178;49.460;10.850;2023-12-04T03:31:34;-1.00;77.40
41437;DHT22;27178;49.460;10.850;2023-12-04T03:34:03;-0.90;77.50
41437;DHT22;27178;49.460;10.850;2023-12-04T03:36:32;-1.00;77.30
41437;DHT22;27178;49.460;10.850;2023-12-04T03:39:00;-1.00;77.20
41437;DHT22;27178;49.460;10.850;2023-12-04T03:41:28;-1.00;77.40
41437;DHT22;27178;49.460;10.850;2023-12-04T03:43:56;-1.00;77.50
41437;DHT22;27178;49.460;10.850;2023-12-04T03:46:25;-1.00;77.70
41437;DHT22;27178;49.460;10.850;2023-12-04T03:48:55;-1.00;77.70
41437;DHT22;27178;49.460;10.850;2023-12-04T03:51:24;-1.00;77.50
41437;DHT22;27178;49.460;10.850;2023-12-04T03:53:52;-1.00;77.50
41437;DHT22;27178;49.460;10.850;2023-12-04T03:56:20;-1.00;77.60
41437;DHT22;27178;49.460;10.850;2023-12-04T03:58:48;-1.00;77.50
41437;DHT22;27178;49.460;10.850;2023-12-04T04:01:17;-1.00;77.60
41437;DHT22;27178;49.460;10.850;2023-12-04T04:03:45;-1.00;77.50
41437;DHT22;27178;49.460;10.850;2023-12-04T04:06:15;0.70;78.90
41437;DHT22;27178;49.460;10.850;2023-12-04T04:08:43;-1.00;77.70
41437;DHT22;27178;49.460;10.850;2023-12-04T04:11:11;-1.00;77.70
41437;DHT22;27178;49.460;10.850;2023-12-04T04:13:40;-1.00;77.60
41437;DHT22;27178;49.460;10.850;2023-12-04T04:16:13;-1.00;77.80
41437;DHT22;27178;49.460;10.850;2023-12-04T04:18:42;-1.00;77.90
41437;DHT22;27178;49.460;10.850;2023-12-04T04:21:11;-1.00;77.80
41437;DHT22;27178;49.460;10.850;2023-12-04T04:23:40;-1.00;77.70
41437;DHT22;27178;49.460;10.850;2023-12-04T04:26:10;-1.00;77.70
41437;DHT22;27178;49.460;10.850;2023-12-04T04:28:38;-1.00;77.70
41437;DHT22;27178;49.460;10.850;2023-12-04T04:31:07;-1.00;77.70
41437;DHT22;27178;49.460;10.850;2023-12-04T04:33:36;-1.00;77.50
41437;DHT22;27178;49.460;10.850;2023-12-04T04:36:05;-1.00;77.60
41437;DHT22;27178;49.460;10.850;2023-12-04T04:38:33;-1.00;77.90
41437;DHT22;27178;49.460;10.850;2023-12-04T04:41:04;-0.90;77.80
41437;DHT22;27178;49.460;10.850;2023-12-04T04:43:32;-0.90;77.80
41437;DHT22;27178;49.460;10.850;2023-12-04T04:46:01;-0.90;78.00
41437;DHT22;27178;49.460;10.850;2023-12-04T04:48:29;-0.90;78.10
41437;DHT22;27178;49.460;10.850;2023-12-04T04:50:58;-0.90;77.90
41437;DHT22;27178;49.460;10.850;2023-12-04T04:53:26;-0.90;77.90
41437;DHT22;27178;49.460;10.850;2023-12-04T04:55:54;-0.90;77.90
41437;DHT22;27178;49.460;10.850;2023-12-04T04:58:25;-0.90;77.80
41437;DHT22;27178;49.460;10.850;2023-12-04T05:00:54;-0.80;77.80
41437;DHT22;27178;49.460;10.850;2023-12-04T05:03:22;-0.80;77.90
41437;DHT22;27178;49.460;10.850;2023-12-04T05:05:51;-0.80;78.10
41437;DHT22;27178;49.460;10.850;2023-12-04T05:08:19;-0.80;77.90
41437;DHT22;27178;49.460;10.850;2023-12-04T05:10:48;-0.80;77.70
41437;DHT22;27178;49.460;10.850;2023-12-04T05:13:16;-0.80;77.80
41437;DHT22;27178;49.460;10.850;2023-12-04T05:15:46;-0.80;77.80
41437;DHT22;27178;49.460;10.850;2023-12-04T05:18:14;-0.80;77.70
41437;DHT22;27178;49.460;10.850;2023-12-04T05:20:42;-0.80;77.70
41437;DHT22;27178;49.460;10.850;2023-12-04T05:23:11;-0.80;77.90
41437;DHT22;27178;49.460;10.850;2023-12-04T05:25:40;-0.80;77.70
41437;DHT22;27178;49.460;10.850;2023-12-04T05:28:16;-0.70;77.70
41437;DHT22;27178;49.460;10.850;2023-12-04T05:30:46;-0.80;77.70
41437;DHT22;27178;49.460;10.850;2023-12-04T05:33:14;-0.80;77.70
41437;DHT22;27178;49.460;10.850;2023-12-04T05:35:43;-0.80;77.70
41437;DHT22;27178;49.460;10.850;2023-12-04T05:38:11;-0.80;77.80
41437;DHT22;27178;49.460;10.850;2023-12-04T05:40:40;-0.70;78.00
41437;DHT22;27178;49.460;10.850;2023-12-04T05:43:09;-0.80;77.90
41437;DHT22;27178;49.460;10.850;2023-12-04T05:45:38;-0.70;77.90
41437;DHT22;27178;49.460;10.850;2023-12-04T05:48:08;-0.70;78.00
41437;DHT22;27178;49.460;10.850;2023-12-04T05:50:37;-0.70;77.70
41437;DHT22;27178;49.460;10.850;2023-12-04T05:53:06;-0.70;77.80
41437;DHT22;27178;49.460;10.850;2023-12-04T05:55:35;-0.70;77.90
41437;DHT22;27178;49.460;10.850;2023-12-04T05:58:03;-0.70;77.70
41437;DHT22;27178;49.460;10.850;2023-12-04T06:00:31;-0.70;77.70
41437;DHT22;27178;49.460;10.850;2023-12-04T06:03:00;-0.70;77.90
41437;DHT22;27178;49.460;10.850;2023-12-04T06:05:30;-0.60;77.80
41437;DHT22;27178;49.460;10.850;2023-12-04T06:07:59;-0.70;77.70
41437;DHT22;27178;49.460;10.850;2023-12-04T06:10:27;-0.70;77.70
41437;DHT22;27178;49.460;10.850;2023-12-04T06:12:55;-0.60;78.10
41437;DHT22;27178;49.460;10.850;2023-12-04T06:15:24;-0.60;78.10
41437;DHT22;27178;49.460;10.850;2023-12-04T06:17:52;-0.50;78.30
41437;DHT22;27178;49.460;10.850;2023-12-04T06:20:20;-0.60;78.20
41437;DHT22;27178;49.460;10.850;2023-12-04T06:22:51;-0.60;78.10
41437;DHT22;27178;49.460;10.850;2023-12-04T06:25:20;-0.60;77.80
41437;DHT22;27178;49.460;10.850;2023-12-04T06:27:48;-0.50;77.90
41437;DHT22;27178;49.460;10.850;2023-12-04T06:30:19;-0.50;77.80
41437;DHT22;27178;49.460;10.850;2023-12-04T06:32:48;-0.50;77.70
41437;DHT22;27178;49.460;10.850;2023-12-04T06:35:17;-0.50;77.70
41437;DHT22;27178;49.460;10.850;2023-12-04T06:37:49;-0.50;78.10
41437;DHT22;27178;49.460;10.850;2023-12-04T06:40:22;-0.50;78.10
41437;DHT22;27178;49.460;10.850;2023-12-04T06:42:51;-0.50;78.10
41437;DHT22;27178;49.460;10.850;2023-12-04T06:45:20;-0.50;78.00
41437;DHT22;27178;49.460;10.850;2023-12-04T06:47:50;-0.50;77.90
41437;DHT22;27178;49.460;10.850;2023-12-04T06:50:19;-0.40;77.90
41437;DHT22;27178;49.460;10.850;2023-12-04T06:52:47;-0.50;77.70
41437;DHT22;27178;49.460;10.850;2023-12-04T06:55:18;-0.50;77.70
41437;DHT22;27178;49.460;10.850;2023-12-04T06:57:46;-0.40;77.80
41437;DHT22;27178;49.460;10.850;2023-12-04T07:00:15;-0.40;77.70
41437;DHT22;27178;49.460;10.850;2023-12-04T07:02:49;-0.50;77.50
41437;DHT22;27178;49.460;10.850;2023-12-04T07:05:19;-0.40;77.40
41437;DHT22;27178;49.460;10.850;2023-12-04T07:07:48;-0.50;77.40
41437;DHT22;27178;49.460;10.850;2023-12-04T07:10:18;-0.40;77.60
41437;DHT22;27178;49.460;10.850;2023-12-04T07:12:47;-0.40;77.60
41437;DHT22;27178;49.460;10.850;2023-12-04T07:15:15;-0.50;77.50
41437;DHT22;27178;49.460;10.850;2023-12-04T07:17:44;-0.40;77.50
41437;DHT22;27178;49.460;10.850;2023-12-04T07:20:12;0.60;77.90
41437;DHT22;27178;49.460;10.850;2023-12-04T07:22:41;-0.50;77.20
41437;DHT22;27178;49.460;10.850;2023-12-04T07:25:09;-0.50;77.20
41437;DHT22;27178;49.460;10.850;2023-12-04T07:27:38;-0.50;77.30
41437;DHT22;27178;49.460;10.850;2023-12-04T07:30:07;-0.50;77.20
41437;DHT22;27178;49.460;10.850;2023-12-04T07:32:35;-0.50;77.50
41437;DHT22;27178;49.460;10.850;2023-12-04T07:35:04;-0.40;77.50
41437;DHT22;27178;49.460;10.850;2023-12-04T07:37:33;-0.50;77.70
41437;DHT22;27178;49.460;10.850;2023-12-04T07:40:01;-0.40;77.50
41437;DHT22;27178;49.460;10.850;2023-12-04T07:42:30;-0.40;77.30
41437;DHT22;27178;49.460;10.850;2023-12-04T07:45:00;-0.40;77.20
41437;DHT22;27178;49.460;10.850;2023-12-04T07:47:28;-0.40;77.10
41437;DHT22;27178;49.460;10.850;2023-12-04T07:49:57;-0.40;77.50
41437;DHT22;27178;49.460;10.850;2023-12-04T07:52:27;-0.40;77.50
41437;DHT22;27178;49.460;10.850;2023-12-04T07:54:55;-0.40;77.30
41437;DHT22;27178;49.460;10.850;2023-12-04T07:57:24;-0.40;77.40
41437;DHT22;27178;49.460;10.850;2023-12-04T07:59:52;-0.40;77.30
41437;DHT22;27178;49.460;10.850;2023-12-04T08:02:22;-0.40;77.20
41437;DHT22;27178;49.460;10.850;2023-12-04T08:04:51;-0.30;77.10
41437;DHT22;27178;49.460;10.850;2023-12-04T08:07:20;-0.40;77.30
41437;DHT22;27178;49.460;10.850;2023-12-04T08:09:48;-0.30;77.20
41437;DHT22;27178;49.460;10.850;2023-12-04T08:12:16;-0.40;77.20
41437;DHT22;27178;49.460;10.850;2023-12-04T08:14:44;-0.30;77.20
41437;DHT22;27178;49.460;10.850;2023-12-04T08:17:13;-0.30;77.30
41437;DHT22;27178;49.460;10.850;2023-12-04T08:19:44;-0.30;77.30
41437;DHT22;27178;49.460;10.850;2023-12-04T08:22:16;-0.30;77.30
41437;DHT22;27178;49.460;10.850;2023-12-04T08:24:45;-0.20;77.30
41437;DHT22;27178;49.460;10.850;2023-12-04T08:27:13;-0.20;77.10
41437;DHT22;27178;49.460;10.850;2023-12-04T08:29:41;-0.20;77.20
41437;DHT22;27178;49.460;10.850;2023-12-04T08:32:10;-0.20;77.20
41437;DHT22;27178;49.460;10.850;2023-12-04T08:34:39;-0.20;77.00
41437;DHT22;27178;49.460;10.850;2023-12-04T08:37:08;-0.20;77.40
41437;DHT22;27178;49.460;10.850;2023-12-04T08:39:37;-0.10;77.50
41437;DHT22;27178;49.460;10.850;2023-12-04T08:42:05;-0.10;77.60
41437;DHT22;27178;49.460;10.850;2023-12-04T08:44:43;-0.10;77.80
41437;DHT22;27178;49.460;10.850;2023-12-04T08:47:12;0.00;77.90
41437;DHT22;27178;49.460;10.850;2023-12-04T08:49:41;0.00;77.90
41437;DHT22;27178;49.460;10.850;2023-12-04T08:52:16;0.00;77.90
41437;DHT22;27178;49.460;10.850;2023-12-04T08:54:45;0.10;77.90
41437;DHT22;27178;49.460;10.850;2023-12-04T08:57:13;0.10;77.80
41437;DHT22;27178;49.460;10.850;2023-12-04T08:59:41;0.10;77.60
41437;DHT22;27178;49.460;10.850;2023-12-04T09:02:10;0.10;77.50
41437;DHT22;27178;49.460;10.850;2023-12-04T09:04:40;1.30;78.30
41437;DHT22;27178;49.460;10.850;2023-12-04T09:07:09;0.20;77.70
41437;DHT22;27178;49.460;10.850;2023-12-04T09:09:59;0.20;77.70
41437;DHT22;27178;49.460;10.850;2023-12-04T09:12:36;0.30;77.80
41437;DHT22;27178;49.460;10.850;2023-12-04T09:15:05;0.30;77.80
41437;DHT22;27178;49.460;10.850;2023-12-04T09:17:35;0.40;77.90
41437;DHT22;27178;49.460;10.850;2023-12-04T09:20:06;0.40;77.60
41437;DHT22;27178;49.460;10.850;2023-12-04T09:22:35;0.40;78.70
41437;DHT22;27178;49.460;10.850;2023-12-04T09:25:19;0.50;77.80
41437;DHT22;27178;49.460;10.850;2023-12-04T09:27:48;0.50;77.90
41437;DHT22;27178;49.460;10.850;2023-12-04T09:30:17;0.60;78.00
41437;DHT22;27178;49.460;10.850;2023-12-04T09:32:46;0.70;78.00
41437;DHT22;27178;49.460;10.850;2023-12-04T09:35:15;0.70;77.80
41437;DHT22;27178;49.460;10.850;2023-12-04T09:37:43;0.70;77.80
41437;DHT22;27178;49.460;10.850;2023-12-04T09:40:12;0.70;78.10
41437;DHT22;27178;49.460;10.850;2023-12-04T09:42:42;0.80;78.10
41437;DHT22;27178;49.460;10.850;2023-12-04T09:45:11;0.80;77.80
41437;DHT22;27178;49.460;10.850;2023-12-04T09:47:41;0.80;78.00
41437;DHT22;27178;49.460;10.850;2023-12-04T09:50:10;0.90;77.80
41437;DHT22;27178;49.460;10.850;2023-12-04T09:52:39;0.90;77.90
41437;DHT22;27178;49.460;10.850;2023-12-04T09:55:07;0.90;77.80
41437;DHT22;27178;49.460;10.850;2023-12-04T09:57:37;1.00;78.10
41437;DHT22;27178;49.460;10.850;2023-12-04T10:00:08;1.00;78.00
41437;DHT22;27178;49.460;10.850;2023-12-04T10:02:39;1.10;78.20
41437;DHT22;27178;49.460;10.850;2023-12-04T10:05:08;1.10;78.20
41437;DHT22;27178;49.460;10.850;2023-12-04T10:07:37;1.20;78.20
41437;DHT22;27178;49.460;10.850;2023-12-04T10:10:06;0.50;77.60
41437;DHT22;27178;49.460;10.850;2023-12-04T10:12:36;1.20;78.10
41437;DHT22;27178;49.460;10.850;2023-12-04T10:15:08;1.30;77.90
41437;DHT22;27178;49.460;10.850;2023-12-04T10:17:37;1.30;77.80
41437;DHT22;27178;49.460;10.850;2023-12-04T10:20:08;1.30;78.00
41437;DHT22;27178;49.460;10.850;2023-12-04T10:22:51;1.40;78.00
41437;DHT22;27178;49.460;10.850;2023-12-04T10:25:21;1.40;77.80
41437;DHT22;27178;49.460;10.850;2023-12-04T10:27:51;1.50;78.00
41437;DHT22;27178;49.460;10.850;2023-12-04T10:30:25;1.50;77.90
41437;DHT22;27178;49.460;10.850;2023-12-04T10:32:56;1.50;77.70
41437;DHT22;27178;49.460;10.850;2023-12-04T10:35:32;1.60;77.70
41437;DHT22;27178;49.460;10.850;2023-12-04T10:38:04;1.60;77.50
41437;DHT22;27178;49.460;10.850;2023-12-04T10:40:33;1.60;77.60
41437;DHT22;27178;49.460;10.850;2023-12-04T10:43:14;1.70;77.60
41437;DHT22;27178;49.460;10.850;2023-12-04T10:45:45;1.70;77.40
41437;DHT22;27178;49.460;10.850;2023-12-04T10:48:15;1.70;77.30
41437;DHT22;27178;49.460;10.850;2023-12-04T10:50:46;1.70;77.10
41437;DHT22;27178;49.460;10.850;2023-12-04T10:53:17;1.70;77.20
41437;DHT22;27178;49.460;10.850;2023-12-04T10:55:45;1.80;77.30
41437;DHT22;27178;49.460;10.850;2023-12-04T10:58:17;1.80;77.60
41437;DHT22;27178;49.460;10.850;2023-12-04T11:00:48;1.80;77.60
41437;DHT22;27178;49.460;10.850;2023-12-04T11:03:20;1.90;77.50
41437;DHT22;27178;49.460;10.850;2023-12-04T11:05:55;1.90;77.50
41437;DHT22;27178;49.460;10.850;2023-12-04T11:08:27;1.90;77.60
41437;DHT22;27178;49.460;10.850;2023-12-04T11:11:02;1.90;77.50
41437;DHT22;27178;49.460;10.850;2023-12-04T11:13:34;2.00;77.30
41437;DHT22;27178;49.460;10.850;2023-12-04T11:16:09;2.00;77.60
41437;DHT22;27178;49.460;10.850;2023-12-04T11:18:43;2.00;77.30
41437;DHT22;27178;49.460;10.850;2023-12-04T11:21:13;2.10;77.40
41437;DHT22;27178;49.460;10.850;2023-12-04T11:23:42;2.10;77.30
41437;DHT22;27178;49.460;10.850;2023-12-04T11:26:12;2.10;76.90
41437;DHT22;27178;49.460;10.850;2023-12-04T11:28:41;2.10;76.90
41437;DHT22;27178;49.460;10.850;2023-12-04T11:31:11;2.10;77.00
41437;DHT22;27178;49.460;10.850;2023-12-04T11:33:40;2.10;76.70
41437;DHT22;27178;49.460;10.850;2023-12-04T11:36:10;2.10;76.90
41437;DHT22;27178;49.460;10.850;2023-12-04T11:38:44;2.10;77.00
41437;DHT22;27178;49.460;10.850;2023-12-04T11:41:18;2.20;77.00
41437;DHT22;27178;49.460;10.850;2023-12-04T11:43:52;2.20;76.90
41437;DHT22;27178;49.460;10.850;2023-12-04T11:46:23;2.20;76.80
41437;DHT22;27178;49.460;10.850;2023-12-04T11:48:54;2.20;77.00
41437;DHT22;27178;49.460;10.850;2023-12-04T11:51:45;2.20;77.10
41437;DHT22;27178;49.460;10.850;2023-12-04T11:54:19;2.20;76.90
41437;DHT22;27178;49.460;10.850;2023-12-04T11:57:10;2.20;77.10
41437;DHT22;27178;49.460;10.850;2023-12-04T11:59:47;2.20;76.90
41437;DHT22;27178;49.460;10.850;2023-12-04T12:02:17;2.20;76.70
41437;DHT22;27178;49.460;10.850;2023-12-04T12:04:47;2.20;76.60
41437;DHT22;27178;49.460;10.850;2023-12-04T12:07:16;2.20;76.50
41437;DHT22;27178;49.460;10.850;2023-12-04T12:09:44;2.20;76.60
41437;DHT22;27178;49.460;10.850;2023-12-04T12:12:15;2.20;76.90
41437;DHT22;27178;49.460;10.850;2023-12-04T12:14:44;2.20;76.70
41437;DHT22;27178;49.460;10.850;2023-12-04T12:17:12;2.20;77.10
41437;DHT22;27178;49.460;10.850;2023-12-04T12:19:42;2.20;77.10
41437;DHT22;27178;49.460;10.850;2023-12-04T12:22:11;2.20;77.10
41437;DHT22;27178;49.460;10.850;2023-12-04T12:24:39;2.20;77.20
41437;DHT22;27178;49.460;10.850;2023-12-04T12:27:08;2.30;77.10
41437;DHT22;27178;49.460;10.850;2023-12-04T12:29:36;2.30;76.90
41437;DHT22;27178;49.460;10.850;2023-12-04T12:32:05;2.30;77.00
41437;DHT22;27178;49.460;10.850;2023-12-04T12:34:35;2.30;77.30
41437;DHT22;27178;49.460;10.850;2023-12-04T12:37:05;2.30;77.00
41437;DHT22;27178;49.460;10.850;2023-12-04T12:39:33;2.30;76.80
41437;DHT22;27178;49.460;10.850;2023-12-04T12:42:03;2.40;77.00
41437;DHT22;27178;49.460;10.850;2023-12-04T12:44:39;2.40;77.10
41437;DHT22;27178;49.460;10.850;2023-12-04T12:47:08;2.40;77.00
41437;DHT22;27178;49.460;10.850;2023-12-04T12:49:38;2.40;77.00
41437;DHT22;27178;49.460;10.850;2023-12-04T12:52:10;2.40;76.80
41437;DHT22;27178;49.460;10.850;2023-12-04T12:54:40;2.40;76.90
41437;DHT22;27178;49.460;10.850;2023-12-04T12:57:09;2.40;76.60
41437;DHT22;27178;49.460;10.850;2023-12-04T12:59:39;2.50;76.60
41437;DHT22;27178;49.460;10.850;2023-12-04T13:02:07;2.40;76.50
41437;DHT22;27178;49.460;10.850;2023-12-04T13:04:39;2.40;76.50
41437;DHT22;27178;49.460;10.850;2023-12-04T13:07:10;2.40;76.50
41437;DHT22;27178;49.460;10.850;2023-12-04T13:09:38;2.40;76.60
41437;DHT22;27178;49.460;10.850;2023-12-04T13:12:08;2.40;76.70
41437;DHT22;27178;49.460;10.850;2023-12-04T13:14:37;2.40;76.90
41437;DHT22;27178;49.460;10.850;2023-12-04T13:17:06;2.40;77.30
41437;DHT22;27178;49.460;10.850;2023-12-04T13:19:37;2.40;77.20
41437;DHT22;27178;49.460;10.850;2023-12-04T13:22:05;2.40;77.10
41437;DHT22;27178;49.460;10.850;2023-12-04T13:24:35;2.40;76.80
41437;DHT22;27178;49.460;10.850;2023-12-04T13:27:04;2.50;76.90
41437;DHT22;27178;49.460;10.850;2023-12-04T13:29:32;2.50;76.80
41437;DHT22;27178;49.460;10.850;2023-12-04T13:32:00;2.50;76.90
41437;DHT22;27178;49.460;10.850;2023-12-04T13:34:29;2.50;77.10
41437;DHT22;27178;49.460;10.850;2023-12-04T13:36:57;2.50;77.10
41437;DHT22;27178;49.460;10.850;2023-12-04T13:39:25;2.50;77.00
41437;DHT22;27178;49.460;10.850;2023-12-04T13:42:17;2.50;77.00
41437;DHT22;27178;49.460;10.850;2023-12-04T13:45:03;2.50;76.80
41437;DHT22;27178;49.460;10.850;2023-12-04T13:47:36;2.50;76.90
41437;DHT22;27178;49.460;10.850;2023-12-04T13:50:06;2.50;77.10
41437;DHT22;27178;49.460;10.850;2023-12-04T13:52:37;2.50;77.10
41437;DHT22;27178;49.460;10.850;2023-12-04T13:55:06;2.50;76.90
41437;DHT22;27178;49.460;10.850;2023-12-04T13:57:44;2.50;76.90
41437;DHT22;27178;49.460;10.850;2023-12-04T14:00:27;2.50;76.80
41437;DHT22;27178;49.460;10.850;2023-12-04T14:02:56;2.50;76.90
41437;DHT22;27178;49.460;10.850;2023-12-04T14:05:31;2.50;77.00
41437;DHT22;27178;49.460;10.850;2023-12-04T14:08:01;2.50;77.00
41437;DHT22;27178;49.460;10.850;2023-12-04T14:10:32;2.50;76.90
41437;DHT22;27178;49.460;10.850;2023-12-04T14:13:02;2.50;76.90
41437;DHT22;27178;49.460;10.850;2023-12-04T14:15:31;2.40;76.80
41437;DHT22;27178;49.460;10.850;2023-12-04T14:18:00;2.50;76.90
41437;DHT22;27178;49.460;10.850;2023-12-04T14:20:29;2.50;76.80
41437;DHT22;27178;49.460;10.850;2023-12-04T14:22:57;2.40;76.90
41437;DHT22;27178;49.460;10.850;2023-12-04T14:25:26;2.40;76.90
41437;DHT22;27178;49.460;10.850;2023-12-04T14:27:54;2.40;76.80
41437;DHT22;27178;49.460;10.850;2023-12-04T14:30:24;2.40;76.90
41437;DHT22;27178;49.460;10.850;2023-12-04T14:32:54;2.40;77.10
41437;DHT22;27178;49.460;10.850;2023-12-04T14:35:23;2.40;77.10
41437;DHT22;27178;49.460;10.850;2023-12-04T14:37:52;2.40;76.80
41437;DHT22;27178;49.460;10.850;2023-12-04T14:40:20;2.40;76.90
41437;DHT22;27178;49.460;10.850;2023-12-04T14:42:50;2.30;76.90
41437;DHT22;27178;49.460;10.850;2023-12-04T14:45:18;2.30;77.00
41437;DHT22;27178;49.460;10.850;2023-12-04T14:47:49;2.30;77.10
41437;DHT22;27178;49.460;10.850;2023-12-04T14:50:19;2.30;77.20
41437;DHT22;27178;49.460;10.850;2023-12-04T14:52:47;2.30;77.30
41437;DHT22;27178;49.460;10.850;2023-12-04T14:55:18;2.30;77.30
41437;DHT22;27178;49.460;10.850;2023-12-04T14:58:31;2.30;77.40
41437;DHT22;27178;49.460;10.850;2023-12-04T15:01:29;2.30;77.40
41437;DHT22;27178;49.460;10.850;2023-12-04T15:04:28;2.30;77.50
41437;DHT22;27178;49.460;10.850;2023-12-04T15:07:27;2.30;77.40
41437;DHT22;27178;49.460;10.850;2023-12-04T15:10:23;2.30;77.60
41437;DHT22;27178;49.460;10.850;2023-12-04T15:13:12;2.30;77.50
41437;DHT22;27178;49.460;10.850;2023-12-04T15:16:12;1.10;76.80
41437;DHT22;27178;49.460;10.850;2023-12-04T15:19:09;2.30;77.70
41437;DHT22;27178;49.460;10.850;2023-12-04T15:22:04;2.20;77.80
41437;DHT22;27178;49.460;10.850;2023-12-04T15:24:33;2.30;78.00
41437;DHT22;27178;49.460;10.850;2023-12-04T15:27:02;2.30;77.80
41437;DHT22;27178;49.460;10.850;2023-12-04T15:29:30;2.30;77.80
41437;DHT22;27178;49.460;10.850;2023-12-04T15:31:58;2.30;77.60
41437;DHT22;27178;49.460;10.850;2023-12-04T15:34:27;2.30;77.60
41437;DHT22;27178;49.460;10.850;2023-12-04T15:36:56;2.30;77.40
41437;DHT22;27178;49.460;10.850;2023-12-04T15:39:24;2.30;77.60
41437;DHT22;27178;49.460;10.850;2023-12-04T15:41:53;2.30;77.50